Time;durP1;ratioP1;P1;durP2;ratioP2;P2;SDS_P1;SDS_P2;PMS_P1;PMS_P2;Temp;Humidity;BMP_temperature;BMP_pressure;BME280_temperature;BME280_humidity;BME280_pressure;Samples;Min_cycle;Max_cycle;Signal;HPM_P1;HPM_P2
2021/09/23 00:00:55;;;;;;;22.00;8.60;;;;;;;11.55;86.69;100927.11;112949;1199;22873;-60
2021/09/23 00:06:17;;;;;;;20.80;7.40;;;;;;;11.55;86.28;100911.95;112823;1199;26001;-59
2021/09/23 00:08:48;;;;;;;21.90;9.20;;;;;;;11.54;86.18;100908.81;112931;1192;24099;-62
2021/09/23 00:11:19;;;;;;;20.60;8.10;;;;;;;11.52;86.10;100909.54;112884;1199;22531;-60
2021/09/23 00:13:49;;;;;;;22.00;8.70;;;;;;;11.51;85.97;100906.36;112861;1198;22453;-60
2021/09/23 00:16:21;;;;;;;24.70;9.70;;;;;;;11.50;86.01;100908.05;112832;1199;25212;-59
2021/09/23 00:18:54;;;;;;;23.30;8.80;;;;;;;11.48;86.02;100903.90;113148;1199;22446;-59
2021/09/23 00:21:25;;;;;;;25.20;10.90;;;;;;;11.46;85.97;100896.73;112947;1199;22435;-58
2021/09/23 00:23:56;;;;;;;27.50;10.90;;;;;;;11.44;85.98;100893.36;113220;1193;25111;-62
2021/09/23 00:26:29;;;;;;;23.90;10.60;;;;;;;11.41;85.71;100884.65;112907;1198;22430;-59
2021/09/23 00:29:03;;;;;;;24.80;9.40;;;;;;;11.38;85.77;100878.84;112770;1198;22455;-59
2021/09/23 00:31:34;;;;;;;26.90;10.20;;;;;;;11.37;85.36;100877.77;113136;1198;22441;-59
2021/09/23 00:34:05;;;;;;;24.80;9.40;;;;;;;11.34;85.21;100877.30;112942;1199;22425;-59
2021/09/23 00:36:36;;;;;;;24.60;9.80;;;;;;;11.30;85.15;100876.18;113204;1199;25260;-60
2021/09/23 00:39:08;;;;;;;27.20;11.40;;;;;;;11.27;85.17;100871.69;113232;1199;24233;-59
2021/09/23 00:41:40;;;;;;;27.30;9.60;;;;;;;11.23;85.06;100863.00;112871;1198;25111;-60
2021/09/23 00:44:20;;;;;;;23.60;10.30;;;;;;;11.20;85.18;100861.45;113031;1198;24157;-60
2021/09/23 00:46:51;;;;;;;26.50;9.80;;;;;;;11.18;85.01;100861.89;112994;1184;24068;-59
2021/09/23 00:49:23;;;;;;;23.30;9.90;;;;;;;11.15;84.80;100858.30;112961;1192;25152;-61
2021/09/23 00:51:54;;;;;;;22.40;9.10;;;;;;;11.10;84.85;100854.04;113023;1192;22445;-60
2021/09/23 00:54:25;;;;;;;23.70;8.60;;;;;;;11.07;84.66;100854.58;112946;1192;22531;-62
2021/09/23 00:56:55;;;;;;;19.80;8.70;;;;;;;11.03;84.68;100853.55;112762;1193;24820;-59
2021/09/23 00:59:29;;;;;;;25.00;10.50;;;;;;;11.01;84.51;100849.91;112904;1199;22529;-59
2021/09/23 01:02:01;;;;;;;19.80;8.80;;;;;;;10.97;84.45;100847.52;112892;1193;23004;-60
2021/09/23 01:04:35;;;;;;;24.20;9.20;;;;;;;10.92;84.44;100842.80;112924;1193;22796;-59
2021/09/23 01:07:06;;;;;;;25.30;9.40;;;;;;;10.89;84.48;100839.77;113082;1192;24907;-60
2021/09/23 01:09:39;;;;;;;31.00;9.40;;;;;;;10.86;84.45;100837.66;113236;1199;22461;-59
2021/09/23 01:12:11;;;;;;;22.10;8.00;;;;;;;10.83;84.65;100833.80;113020;1198;22440;-60
2021/09/23 01:15:03;;;;;;;22.40;8.10;;;;;;;10.81;84.63;100831.89;112555;1200;25377;-59
2021/09/23 01:17:34;;;;;;;22.60;7.90;;;;;;;10.80;85.00;100829.83;112619;1199;22443;-59
2021/09/23 01:20:07;;;;;;;21.70;7.80;;;;;;;10.78;85.19;100829.46;112999;1176;24126;-60
2021/09/23 01:22:38;;;;;;;21.00;7.00;;;;;;;10.75;85.46;100826.08;112871;1193;24290;-61
2021/09/23 01:25:11;;;;;;;24.10;7.80;;;;;;;10.72;85.56;100825.95;112994;1192;22446;-59
2021/09/23 01:27:42;;;;;;;21.00;7.50;;;;;;;10.69;85.73;100823.70;113061;1198;24065;-59
2021/09/23 01:30:15;;;;;;;23.30;7.00;;;;;;;10.67;85.61;100819.73;112964;1193;25107;-59
2021/09/23 01:32:45;;;;;;;24.60;7.60;;;;;;;10.66;85.77;100823.07;112944;1199;22439;-60
2021/09/23 01:35:16;;;;;;;26.20;7.50;;;;;;;10.63;85.79;100827.27;112897;1198;22482;-62
2021/09/23 01:37:47;;;;;;;22.10;7.10;;;;;;;10.61;86.04;100821.59;112868;1198;22512;-60
2021/09/23 01:40:18;;;;;;;24.30;7.20;;;;;;;10.61;86.22;100825.59;112823;1193;24150;-59
2021/09/23 01:42:49;;;;;;;20.00;7.00;;;;;;;10.60;86.21;100825.38;112991;1198;22448;-59
2021/09/23 01:45:20;;;;;;;22.70;7.20;;;;;;;10.60;86.40;100819.08;112918;1198;23239;-60
2021/09/23 01:47:51;;;;;;;21.30;7.40;;;;;;;10.59;86.51;100812.56;112937;1199;22562;-59
2021/09/23 01:50:22;;;;;;;17.70;6.20;;;;;;;10.60;86.58;100811.10;113039;1198;24092;-59
2021/09/23 01:52:55;;;;;;;23.50;6.40;;;;;;;10.61;86.72;100809.70;113014;1199;23784;-60
2021/09/23 01:55:27;;;;;;;25.60;8.50;;;;;;;10.62;86.75;100807.59;113020;1198;25107;-60
2021/09/23 01:57:58;;;;;;;21.90;6.50;;;;;;;10.62;86.92;100801.66;112987;1198;22437;-59
2021/09/23 02:00:30;;;;;;;18.10;5.60;;;;;;;10.63;87.11;100797.52;112981;1193;22499;-60
2021/09/23 02:03:03;;;;;;;19.40;5.90;;;;;;;10.64;87.12;100797.54;113016;1199;22416;-60
2021/09/23 02:05:34;;;;;;;26.80;7.10;;;;;;;10.64;87.23;100796.39;113091;1198;25163;-60
2021/09/23 02:08:06;;;;;;;22.20;6.70;;;;;;;10.65;87.57;100795.73;112972;1199;22478;-60
2021/09/23 02:10:37;;;;;;;21.20;6.80;;;;;;;10.66;87.53;100786.62;112881;1193;24817;-60
2021/09/23 02:13:09;;;;;;;24.00;6.30;;;;;;;10.66;87.71;100783.64;112971;1198;25425;-59
2021/09/23 02:15:40;;;;;;;21.10;6.10;;;;;;;10.67;87.79;100779.30;113184;1199;22424;-59
2021/09/23 02:18:10;;;;;;;22.20;5.40;;;;;;;10.67;87.86;100775.62;112833;1192;22480;-59
2021/09/23 02:20:42;;;;;;;23.60;6.20;;;;;;;10.68;87.82;100772.13;113045;1198;22436;-59
2021/09/23 02:23:12;;;;;;;19.30;6.00;;;;;;;10.70;87.82;100769.27;112963;1192;25058;-60
2021/09/23 02:25:44;;;;;;;20.20;5.20;;;;;;;10.71;87.87;100763.98;113009;1193;22434;-59
2021/09/23 02:28:15;;;;;;;19.20;6.50;;;;;;;10.73;87.89;100766.67;112989;1192;22426;-59
2021/09/23 02:30:47;;;;;;;19.40;5.80;;;;;;;10.74;87.94;100762.99;112930;1198;22452;-60
2021/09/23 02:33:18;;;;;;;21.30;5.30;;;;;;;10.77;88.04;100762.41;113211;1199;24076;-62
2021/09/23 02:35:49;;;;;;;20.20;5.80;;;;;;;10.79;88.00;100764.45;112826;1184;24053;-59
2021/09/23 02:38:20;;;;;;;26.50;5.50;;;;;;;10.80;88.09;100760.96;112933;1198;22760;-59
2021/09/23 02:40:51;;;;;;;19.10;4.60;;;;;;;10.81;88.09;100757.68;113035;1193;24050;-59
2021/09/23 02:43:21;;;;;;;13.80;3.80;;;;;;;10.81;87.96;100754.60;112921;1198;22458;-59
2021/09/23 02:45:52;;;;;;;18.90;3.70;;;;;;;10.82;88.28;100760.76;112993;1199;22582;-59
2021/09/23 02:48:25;;;;;;;22.30;4.30;;;;;;;10.83;88.23;100756.38;113069;1198;22992;-58
2021/09/23 02:50:57;;;;;;;12.00;3.40;;;;;;;10.84;88.16;100754.73;112893;1199;22446;-59
2021/09/23 02:53:27;;;;;;;20.30;5.40;;;;;;;10.85;88.20;100756.37;112719;1199;25161;-59
2021/09/23 02:55:59;;;;;;;14.50;4.70;;;;;;;10.85;88.16;100752.52;112663;1199;22439;-60
2021/09/23 02:58:30;;;;;;;16.90;5.10;;;;;;;10.85;88.15;100750.85;113040;1192;23112;-59
2021/09/23 03:01:01;;;;;;;18.90;5.20;;;;;;;10.86;88.04;100744.52;112829;1198;22648;-59
2021/09/23 03:03:32;;;;;;;18.20;4.60;;;;;;;10.87;88.15;100739.62;112862;1192;22441;-60
2021/09/23 03:06:03;;;;;;;19.40;4.40;;;;;;;10.88;88.19;100743.00;113039;1199;24075;-59
2021/09/23 03:08:34;;;;;;;19.00;3.80;;;;;;;10.88;88.12;100741.94;112954;1199;22446;-59
2021/09/23 03:11:05;;;;;;;20.80;5.20;;;;;;;10.89;88.23;100728.41;112765;1200;22545;-59
2021/09/23 03:13:36;;;;;;;19.30;4.70;;;;;;;10.90;88.09;100727.51;113243;1192;25132;-59
2021/09/23 03:16:07;;;;;;;18.10;3.40;;;;;;;10.91;88.17;100728.79;113158;1198;22440;-59
2021/09/23 03:18:38;;;;;;;16.00;4.80;;;;;;;10.91;88.10;100728.86;113115;1192;22419;-60
2021/09/23 03:21:19;;;;;;;;;;;;;;;;;;;;;
2021/09/23 03:23:53;;;;;;;22.80;4.90;;;;;;;10.94;88.10;100723.46;113005;1199;22418;-60
2021/09/23 03:26:24;;;;;;;18.40;3.90;;;;;;;10.96;88.09;100718.92;112955;1198;24064;-59
2021/09/23 03:28:55;;;;;;;18.60;4.20;;;;;;;10.96;88.08;100713.46;113036;1198;25408;-60
2021/09/23 03:31:26;;;;;;;22.80;5.70;;;;;;;10.98;88.13;100710.03;113059;1198;24085;-59
2021/09/23 03:33:57;;;;;;;19.20;4.40;;;;;;;10.99;88.01;100703.91;113096;1199;25142;-59
2021/09/23 03:36:28;;;;;;;16.60;3.50;;;;;;;10.99;87.92;100701.27;113035;1192;22437;-61
2021/09/23 03:39:04;;;;;;;14.80;3.60;;;;;;;11.00;87.98;100702.27;113509;1199;22436;-60
2021/09/23 03:41:35;;;;;;;23.00;4.90;;;;;;;11.00;88.05;100699.22;113463;1184;24113;-60
2021/09/23 03:44:06;;;;;;;19.30;3.50;;;;;;;11.01;87.95;100689.34;113104;1198;25241;-61
2021/09/23 03:46:37;;;;;;;17.50;4.10;;;;;;;11.03;87.99;100683.23;113102;1194;22500;-60
2021/09/23 03:49:08;;;;;;;17.70;4.20;;;;;;;11.03;87.94;100672.33;112967;1198;22427;-62
2021/09/23 03:51:39;;;;;;;18.00;3.80;;;;;;;11.04;87.85;100668.38;112837;1198;24054;-60
2021/09/23 03:54:11;;;;;;;19.70;3.40;;;;;;;11.03;87.90;100663.48;112854;1199;22440;-59
2021/09/23 03:56:42;;;;;;;19.20;3.60;;;;;;;11.03;87.89;100659.80;112992;1194;22476;-60
2021/09/23 03:59:13;;;;;;;17.60;5.00;;;;;;;11.03;87.82;100652.80;113062;1198;22433;-60
2021/09/23 04:01:45;;;;;;;22.20;4.50;;;;;;;11.03;87.81;100646.30;112814;1198;25181;-60
2021/09/23 04:04:16;;;;;;;18.10;4.00;;;;;;;11.02;87.72;100646.64;112913;1192;22446;-60
2021/09/23 04:06:47;;;;;;;26.60;4.20;;;;;;;11.01;87.75;100646.51;113024;1198;22433;-61
2021/09/23 04:09:18;;;;;;;27.20;4.80;;;;;;;11.00;87.83;100650.88;112887;1198;25131;-61
2021/09/23 04:11:51;;;;;;;24.70;4.50;;;;;;;11.00;88.01;100658.53;113240;1192;25142;-61
2021/09/23 04:14:22;;;;;;;23.90;4.50;;;;;;;11.01;87.80;100653.61;112999;1199;22440;-60
2021/09/23 04:16:54;;;;;;;17.90;4.50;;;;;;;11.02;87.87;100651.06;112889;1198;22445;-61
2021/09/23 04:19:25;;;;;;;20.20;5.50;;;;;;;11.03;87.83;100647.77;112800;1192;22449;-68
2021/09/23 04:21:57;;;;;;;24.50;5.00;;;;;;;11.03;87.90;100650.06;112939;1192;22432;-60
2021/09/23 04:24:28;;;;;;;17.70;3.60;;;;;;;11.04;87.93;100652.36;112924;1199;23631;-60
2021/09/23 04:26:58;;;;;;;23.90;5.40;;;;;;;11.04;87.88;100654.02;112898;1199;22577;-61
2021/09/23 04:29:29;;;;;;;21.70;4.00;;;;;;;11.04;87.94;100655.63;112970;1199;25043;-60
2021/09/23 04:32:00;;;;;;;17.40;3.20;;;;;;;11.04;88.01;100654.42;112953;1198;22510;-61
2021/09/23 04:34:31;;;;;;;17.40;3.50;;;;;;;11.05;87.81;100657.44;112881;1192;22419;-58
2021/09/23 04:37:02;;;;;;;22.90;4.00;;;;;;;11.05;87.92;100652.70;112850;1198;25142;-57
2021/09/23 04:39:33;;;;;;;18.30;4.00;;;;;;;11.05;87.82;100659.26;112810;1192;22952;-61
2021/09/23 04:42:04;;;;;;;19.00;3.60;;;;;;;11.04;87.86;100656.65;112958;1199;24133;-60
2021/09/23 04:44:35;;;;;;;19.60;4.40;;;;;;;11.04;87.89;100654.34;112889;1199;22440;-60
2021/09/23 04:47:07;;;;;;;24.00;4.00;;;;;;;11.04;87.97;100649.00;112852;1198;25520;-62
2021/09/23 04:49:38;;;;;;;23.00;4.20;;;;;;;11.04;88.00;100647.24;112639;1199;26423;-59
2021/09/23 04:52:09;;;;;;;19.50;4.40;;;;;;;11.04;87.91;100643.42;112795;1198;22440;-61
2021/09/23 04:54:40;;;;;;;20.90;3.90;;;;;;;11.04;87.81;100637.59;112853;1198;23142;-60
2021/09/23 04:57:11;;;;;;;24.30;5.00;;;;;;;11.04;87.85;100639.48;112887;1198;23005;-59
2021/09/23 04:59:42;;;;;;;22.90;4.50;;;;;;;11.05;87.96;100635.03;113005;1199;25052;-60
2021/09/23 05:02:14;;;;;;;14.90;4.70;;;;;;;11.06;87.94;100628.08;113005;1198;25145;-60
2021/09/23 05:04:45;;;;;;;17.50;4.00;;;;;;;11.06;88.08;100631.40;112838;1192;22770;-59
2021/09/23 05:07:16;;;;;;;17.60;3.10;;;;;;;11.06;88.04;100622.77;112913;1198;22461;-60
2021/09/23 05:09:47;;;;;;;18.30;3.40;;;;;;;11.08;88.01;100620.16;112911;1193;25662;-61
2021/09/23 05:12:18;;;;;;;17.70;3.00;;;;;;;11.08;88.02;100620.77;112911;1192;24045;-61
2021/09/23 05:14:49;;;;;;;21.20;3.50;;;;;;;11.09;87.93;100619.52;112976;1198;25131;-60
2021/09/23 05:17:20;;;;;;;22.40;4.20;;;;;;;11.10;88.04;100622.81;114031;1192;25111;-60
2021/09/23 05:19:52;;;;;;;19.30;3.60;;;;;;;11.12;87.87;100620.35;113053;1198;24190;-59
2021/09/23 05:22:27;;;;;;;18.30;4.70;;;;;;;11.13;88.02;100625.41;113090;1198;22441;-62
2021/09/23 05:24:58;;;;;;;16.60;3.50;;;;;;;11.14;87.90;100625.36;112882;1198;22436;-60
2021/09/23 05:27:29;;;;;;;21.70;4.10;;;;;;;11.14;88.03;100619.34;112869;1198;25116;-60
2021/09/23 05:30:00;;;;;;;17.50;3.50;;;;;;;11.16;87.96;100623.34;113238;1199;24031;-60
2021/09/23 05:32:31;;;;;;;18.40;3.90;;;;;;;11.18;87.91;100621.91;113145;1198;25345;-62
2021/09/23 05:35:02;;;;;;;16.90;3.20;;;;;;;11.18;88.04;100621.49;112898;1198;22438;-62
2021/09/23 05:37:33;;;;;;;18.20;3.30;;;;;;;11.17;88.04;100621.74;112874;1192;22445;-60
2021/09/23 05:40:07;;;;;;;25.60;3.60;;;;;;;11.19;87.99;100627.17;112843;1192;22422;-62
2021/09/23 05:42:38;;;;;;;19.70;2.90;;;;;;;11.21;88.14;100620.36;112885;1199;26113;-60
2021/09/23 05:45:12;;;;;;;21.50;4.20;;;;;;;11.21;88.01;100619.19;112895;1199;24092;-60
2021/09/23 05:47:43;;;;;;;20.70;3.20;;;;;;;11.22;88.00;100613.70;112972;1198;22946;-61
2021/09/23 05:50:16;;;;;;;29.20;4.30;;;;;;;11.22;88.01;100617.52;112665;1199;25067;-61
2021/09/23 05:52:47;;;;;;;18.80;3.00;;;;;;;11.21;87.86;100617.62;113470;1191;22442;-61
2021/09/23 05:55:18;;;;;;;24.60;3.50;;;;;;;11.21;87.76;100617.97;113049;1198;22453;-61
2021/09/23 05:57:49;;;;;;;17.10;4.10;;;;;;;11.22;87.87;100617.77;112757;1192;24099;-60
2021/09/23 06:00:21;;;;;;;21.30;3.70;;;;;;;11.20;87.94;100612.10;112728;1192;23742;-60
2021/09/23 06:03:02;;;;;;;;;;;;;;;;;;;;;
2021/09/23 06:05:33;;;;;;;23.70;3.90;;;;;;;11.20;88.13;100607.41;112798;1199;22463;-60
2021/09/23 06:08:05;;;;;;;24.90;3.80;;;;;;;11.21;88.38;100607.34;112998;1198;25269;-60
2021/09/23 06:10:36;;;;;;;16.40;3.40;;;;;;;11.24;88.42;100612.49;112953;1199;22440;-60
2021/09/23 06:13:07;;;;;;;13.20;2.90;;;;;;;11.25;88.30;100611.31;112889;1192;22441;-61
2021/09/23 06:15:38;;;;;;;20.90;3.70;;;;;;;11.27;88.53;100608.09;112891;1193;22461;-61
2021/09/23 06:18:10;;;;;;;25.90;3.40;;;;;;;11.30;88.56;100602.36;112863;1199;24109;-61
2021/09/23 06:20:43;;;;;;;20.30;3.50;;;;;;;11.34;88.83;100608.45;112962;1199;22437;-60
2021/09/23 06:23:15;;;;;;;16.10;3.80;;;;;;;11.39;88.75;100604.23;113253;1198;24031;-60
2021/09/23 06:25:47;;;;;;;22.10;4.30;;;;;;;11.43;88.73;100604.61;113037;1198;25041;-60
2021/09/23 06:28:20;;;;;;;18.60;3.40;;;;;;;11.46;88.67;100603.57;112833;1199;22496;-60
2021/09/23 06:30:52;;;;;;;20.90;3.50;;;;;;;11.50;88.79;100603.90;112902;1199;22427;-61
2021/09/23 06:33:23;;;;;;;18.30;4.30;;;;;;;11.55;88.76;100602.77;112852;1198;22442;-61
2021/09/23 06:35:54;;;;;;;17.30;3.40;;;;;;;11.61;88.90;100595.02;112990;1199;22512;-60
2021/09/23 06:38:25;;;;;;;21.40;4.00;;;;;;;11.67;88.91;100596.75;112950;1198;23146;-60
2021/09/23 06:40:57;;;;;;;18.40;3.60;;;;;;;11.74;88.98;100589.11;112954;1198;25071;-60
2021/09/23 06:43:29;;;;;;;17.50;4.80;;;;;;;11.81;88.94;100586.32;113033;1192;24088;-60
2021/09/23 06:46:00;;;;;;;23.60;4.40;;;;;;;11.89;88.96;100584.94;113173;1198;24083;-60
2021/09/23 06:48:33;;;;;;;14.60;3.90;;;;;;;11.96;88.83;100580.09;113349;1199;22553;-60
2021/09/23 06:51:04;;;;;;;21.20;3.70;;;;;;;12.04;88.94;100574.08;113087;1199;24169;-60
2021/09/23 06:53:35;;;;;;;22.80;5.10;;;;;;;12.12;88.95;100573.56;112902;1199;22462;-60
2021/09/23 06:56:07;;;;;;;20.50;3.90;;;;;;;12.20;88.66;100572.65;112932;1199;25141;-60
2021/09/23 06:58:38;;;;;;;19.90;3.20;;;;;;;12.27;88.53;100572.66;112815;1199;24200;-60
2021/09/23 07:01:09;;;;;;;22.60;3.70;;;;;;;12.36;88.60;100575.81;112934;1198;23817;-61
2021/09/23 07:03:40;;;;;;;22.50;5.10;;;;;;;12.46;88.48;100579.48;112862;1199;22415;-60
2021/09/23 07:06:11;;;;;;;16.20;3.50;;;;;;;12.54;88.40;100585.96;113141;1199;22414;-60
2021/09/23 07:08:42;;;;;;;21.70;5.70;;;;;;;12.64;88.30;100586.92;113215;1198;22497;-60
2021/09/23 07:11:19;;;;;;;16.90;3.90;;;;;;;12.76;88.39;100580.84;112939;1198;22432;-59
2021/09/23 07:13:50;;;;;;;21.00;4.20;;;;;;;12.88;88.26;100572.37;112943;1198;22466;-60
2021/09/23 07:16:21;;;;;;;19.50;3.80;;;;;;;13.01;87.99;100571.95;113089;1198;25107;-60
2021/09/23 07:18:53;;;;;;;15.90;4.20;;;;;;;13.15;87.73;100572.13;112898;1199;22430;-59
2021/09/23 07:21:24;;;;;;;16.70;4.20;;;;;;;13.27;86.97;100566.68;112939;1198;22882;-62
2021/09/23 07:23:57;;;;;;;20.10;4.80;;;;;;;13.41;86.79;100566.20;113000;1198;22451;-60
2021/09/23 07:26:28;;;;;;;18.60;5.60;;;;;;;13.53;86.65;100564.16;112842;1198;22432;-60
2021/09/23 07:29:00;;;;;;;22.60;5.60;;;;;;;13.65;86.31;100564.77;113073;1199;22466;-62
2021/09/23 07:31:31;;;;;;;24.10;6.30;;;;;;;13.76;86.23;100570.70;112998;1192;22406;-60
2021/09/23 07:34:03;;;;;;;18.80;6.00;;;;;;;13.83;85.60;100567.41;112952;1192;22445;-62
2021/09/23 07:36:34;;;;;;;21.20;6.70;;;;;;;13.88;85.28;100571.04;113040;1199;22440;-62
2021/09/23 07:39:11;;;;;;;21.30;6.80;;;;;;;13.91;84.93;100572.80;112902;1192;22417;-61
2021/09/23 07:41:44;;;;;;;26.90;6.60;;;;;;;13.93;85.06;100570.23;112859;1198;22426;-61
2021/09/23 07:44:20;;;;;;;18.00;5.90;;;;;;;13.96;85.04;100569.79;112884;1198;22438;-61
2021/09/23 07:46:52;;;;;;;22.90;5.20;;;;;;;14.00;84.70;100570.70;112850;1198;22419;-63
2021/09/23 07:49:23;;;;;;;19.00;5.90;;;;;;;14.01;84.22;100567.20;112891;1198;22431;-60
2021/09/23 07:51:55;;;;;;;16.00;4.80;;;;;;;14.02;84.30;100568.29;112840;1199;22763;-64
2021/09/23 07:54:26;;;;;;;18.40;5.80;;;;;;;14.04;83.92;100560.99;112860;1199;25341;-62
2021/09/23 07:56:56;;;;;;;19.40;6.50;;;;;;;14.05;83.77;100554.89;112919;1198;24065;-62
2021/09/23 07:59:28;;;;;;;14.60;5.20;;;;;;;14.07;83.83;100557.40;112912;1192;22612;-61
2021/09/23 08:02:01;;;;;;;23.60;7.00;;;;;;;14.11;83.97;100554.69;113116;1198;22534;-61
2021/09/23 08:04:34;;;;;;;17.00;5.80;;;;;;;14.16;83.74;100548.26;112878;1192;22453;-62
2021/09/23 08:07:05;;;;;;;17.90;6.00;;;;;;;14.22;83.80;100548.86;112750;1199;25162;-61
2021/09/23 08:09:37;;;;;;;17.30;5.80;;;;;;;14.27;83.67;100550.42;112812;1199;25087;-63
2021/09/23 08:12:11;;;;;;;16.80;5.50;;;;;;;14.34;83.72;100550.69;112740;1199;24166;-61
2021/09/23 08:14:45;;;;;;;23.00;6.70;;;;;;;14.38;83.40;100545.42;113398;1184;22943;-61
2021/09/23 08:17:17;;;;;;;26.90;7.50;;;;;;;14.43;83.06;100545.26;113107;1200;22445;-62
2021/09/23 08:19:51;;;;;;;23.60;7.00;;;;;;;14.49;82.60;100537.13;112639;1193;22468;-62
2021/09/23 08:22:25;;;;;;;19.30;6.70;;;;;;;14.53;82.36;100532.83;112761;1200;22414;-62
2021/09/23 08:24:57;;;;;;;25.20;7.40;;;;;;;14.62;82.82;100527.78;112854;1200;25082;-62
2021/09/23 08:27:30;;;;;;;17.10;6.00;;;;;;;14.76;82.66;100523.08;112909;1200;24187;-62
2021/09/23 08:30:02;;;;;;;19.30;6.20;;;;;;;14.86;82.27;100521.55;112805;1200;24042;-62
2021/09/23 08:32:37;;;;;;;23.00;7.50;;;;;;;14.95;82.00;100510.52;112899;1193;25259;-63
2021/09/23 08:35:10;;;;;;;21.70;6.90;;;;;;;15.03;81.77;100516.84;113051;1200;25887;-63
2021/09/23 08:37:42;;;;;;;17.50;6.70;;;;;;;15.09;81.31;100520.15;112742;1192;22436;-63
2021/09/23 08:40:15;;;;;;;27.20;8.60;;;;;;;15.12;81.23;100516.13;112725;1200;22421;-63
2021/09/23 08:42:47;;;;;;;23.00;7.60;;;;;;;15.17;81.32;100512.67;112925;1200;22455;-63
2021/09/23 08:45:20;;;;;;;21.00;8.00;;;;;;;15.22;80.89;100506.30;112890;1200;22485;-62
2021/09/23 08:47:52;;;;;;;23.10;8.60;;;;;;;15.28;80.71;100505.67;112816;1193;25074;-62
2021/09/23 08:50:25;;;;;;;22.80;7.90;;;;;;;15.30;80.45;100498.71;112796;1193;24045;-63
2021/09/23 08:52:56;;;;;;;21.40;8.80;;;;;;;15.33;80.48;100489.67;112791;1200;22426;-62
2021/09/23 08:55:29;;;;;;;22.10;8.50;;;;;;;15.36;80.61;100485.39;112692;1193;22437;-62
2021/09/23 08:58:04;;;;;;;27.10;9.00;;;;;;;15.41;80.18;100485.02;112751;1193;22584;-62
2021/09/23 09:00:37;;;;;;;23.20;10.10;;;;;;;15.48;80.34;100480.86;112703;1200;25643;-62
2021/09/23 09:03:13;;;;;;;22.50;8.20;;;;;;;15.57;79.89;100477.39;112667;1200;22413;-62
2021/09/23 09:05:54;;;;;;;17.10;7.60;;;;;;;15.64;79.61;100475.83;112638;1200;22444;-63
2021/09/23 09:08:28;;;;;;;18.50;6.40;;;;;;;15.71;79.59;100477.22;112628;1200;22454;-63
2021/09/23 09:11:02;;;;;;;20.30;7.20;;;;;;;15.76;79.27;100469.56;112645;1200;25159;-62
2021/09/23 09:13:40;;;;;;;19.40;7.00;;;;;;;15.80;79.27;100467.98;112612;1200;24053;-63
2021/09/23 09:16:14;;;;;;;18.00;6.30;;;;;;;15.82;78.65;100465.02;113022;1199;22820;-67
2021/09/23 09:18:46;;;;;;;18.60;6.70;;;;;;;15.80;78.41;100466.23;112863;1199;23915;-67
2021/09/23 09:21:21;;;;;;;18.00;6.80;;;;;;;15.77;78.41;100466.65;112947;1193;22909;-61
2021/09/23 09:23:55;;;;;;;17.50;5.50;;;;;;;15.74;78.53;100462.03;112882;1200;26635;-62
2021/09/23 09:26:32;;;;;;;21.20;7.10;;;;;;;15.74;78.57;100463.63;112774;1192;22456;-62
2021/09/23 09:29:06;;;;;;;19.90;7.10;;;;;;;15.75;78.23;100460.91;112838;1199;22563;-62
2021/09/23 09:31:45;;;;;;;14.70;5.20;;;;;;;15.81;78.66;100453.04;112753;1199;22448;-62
2021/09/23 09:34:19;;;;;;;15.20;5.30;;;;;;;15.92;78.83;100443.27;112725;1199;22429;-62
2021/09/23 09:36:51;;;;;;;16.50;5.40;;;;;;;16.00;78.13;100439.73;112870;1199;22559;-62
2021/09/23 09:39:24;;;;;;;16.60;5.90;;;;;;;16.08;77.82;100442.70;112701;1199;22753;-62
2021/09/23 09:41:56;;;;;;;15.70;5.70;;;;;;;16.16;77.54;100439.17;112871;1199;23148;-62
2021/09/23 09:44:28;;;;;;;16.70;4.80;;;;;;;16.23;77.29;100432.77;113295;1199;22654;-62
2021/09/23 09:47:01;;;;;;;18.10;6.00;;;;;;;16.29;77.09;100429.98;112888;1199;22419;-62
2021/09/23 09:49:33;;;;;;;19.80;5.60;;;;;;;16.36;77.12;100421.88;113020;1192;24061;-62
2021/09/23 09:52:08;;;;;;;13.90;5.10;;;;;;;16.45;77.13;100428.67;112890;1199;22439;-62
2021/09/23 09:54:40;;;;;;;16.50;5.80;;;;;;;16.52;76.91;100423.27;112931;1199;24069;-62
2021/09/23 09:57:13;;;;;;;16.30;5.80;;;;;;;16.59;76.67;100419.98;112742;1192;25100;-62
2021/09/23 09:59:44;;;;;;;20.60;6.00;;;;;;;16.64;76.47;100416.98;113012;1199;22505;-62
2021/09/23 10:02:16;;;;;;;16.70;5.10;;;;;;;16.71;76.25;100412.45;113664;1199;25333;-62
2021/09/23 10:04:49;;;;;;;15.80;6.00;;;;;;;16.79;75.97;100399.10;113076;1199;24021;-62
2021/09/23 10:07:21;;;;;;;17.10;6.10;;;;;;;16.86;75.17;100391.06;112939;1193;22428;-63
2021/09/23 10:09:56;;;;;;;18.00;6.00;;;;;;;16.89;75.13;100381.05;112666;1200;22555;-61
2021/09/23 10:12:28;;;;;;;15.90;4.80;;;;;;;16.96;75.19;100371.34;113080;1199;24069;-62
2021/09/23 10:15:02;;;;;;;15.50;6.20;;;;;;;17.09;75.29;100366.30;112858;1200;22442;-61
2021/09/23 10:17:33;;;;;;;18.30;6.80;;;;;;;17.20;74.22;100364.44;112833;1200;22772;-62
2021/09/23 10:20:07;;;;;;;16.00;6.20;;;;;;;17.29;73.80;100352.27;112783;1200;24145;-61
2021/09/23 10:22:39;;;;;;;18.40;6.00;;;;;;;17.36;73.31;100351.05;112751;1177;24033;-61
2021/09/23 10:25:14;;;;;;;18.20;6.20;;;;;;;17.40;73.37;100331.32;112805;1199;24194;-61
2021/09/23 10:27:59;;;;;;;19.70;6.00;;;;;;;17.46;72.69;100331.59;112761;1200;25106;-62
2021/09/23 10:30:32;;;;;;;16.10;5.70;;;;;;;17.52;71.92;100331.11;113003;1200;22442;-62
2021/09/23 10:33:05;;;;;;;20.80;5.80;;;;;;;17.60;72.27;100324.32;112872;1200;22474;-63
2021/09/23 10:35:37;;;;;;;15.70;6.70;;;;;;;17.65;72.19;100316.16;112789;1200;24025;-63
2021/09/23 10:38:11;;;;;;;16.60;5.30;;;;;;;17.71;72.15;100310.83;112816;1200;22453;-62
2021/09/23 10:40:43;;;;;;;17.30;5.30;;;;;;;17.75;71.58;100302.98;112857;1200;22426;-62
2021/09/23 10:43:17;;;;;;;22.00;6.20;;;;;;;17.76;71.60;100296.67;112832;1193;24032;-62
2021/09/23 10:45:52;;;;;;;16.20;5.10;;;;;;;17.78;71.52;100293.00;112845;1200;23007;-62
2021/09/23 10:48:24;;;;;;;21.50;5.60;;;;;;;17.81;71.46;100300.42;112676;1200;22427;-62
2021/09/23 10:50:55;;;;;;;17.30;5.00;;;;;;;17.83;71.03;100292.90;112820;1200;22644;-62
2021/09/23 10:53:28;;;;;;;15.30;5.10;;;;;;;17.89;71.26;100283.95;112908;1193;24134;-62
2021/09/23 10:56:04;;;;;;;13.80;4.90;;;;;;;17.97;70.82;100278.48;112731;1193;25083;-62
2021/09/23 10:58:39;;;;;;;13.60;4.70;;;;;;;18.03;69.91;100277.03;112862;1195;25086;-63
2021/09/23 11:01:19;;;;;;;17.00;5.20;;;;;;;18.10;69.95;100262.95;112805;1200;26279;-62
2021/09/23 11:03:52;;;;;;;13.50;4.50;;;;;;;18.16;70.16;100255.10;112735;1200;23864;-62
2021/09/23 11:06:33;;;;;;;14.30;4.80;;;;;;;18.22;69.45;100253.96;113111;1200;22442;-62
2021/09/23 11:12:03;;;;;;;15.50;3.60;;;;;;;18.27;68.63;100247.78;111412;1209;544636;-62
2021/09/23 11:14:36;;;;;;;12.40;4.00;;;;;;;18.24;68.71;100236.73;113292;1201;24024;-61
2021/09/23 11:17:08;;;;;;;15.10;3.70;;;;;;;18.21;68.66;100228.49;112950;1193;23992;-64
2021/09/23 11:19:41;;;;;;;18.10;3.30;;;;;;;18.19;68.67;100222.23;112766;1201;25061;-64
2021/09/23 11:22:13;;;;;;;15.90;3.20;;;;;;;18.16;68.34;100222.55;112771;1201;25076;-63
2021/09/23 11:24:46;;;;;;;11.50;3.20;;;;;;;18.13;68.51;100220.38;112737;1201;24703;-62
2021/09/23 11:27:18;;;;;;;15.80;3.50;;;;;;;18.14;68.31;100218.62;112733;1193;22439;-62
2021/09/23 11:29:49;;;;;;;11.60;2.80;;;;;;;18.15;68.38;100216.64;112655;1201;22573;-62
2021/09/23 11:32:22;;;;;;;14.00;3.30;;;;;;;18.18;68.03;100211.83;112641;1201;24064;-62
2021/09/23 11:35:03;;;;;;;12.30;2.60;;;;;;;18.22;68.00;100206.02;112927;1201;22435;-62
2021/09/23 11:37:36;;;;;;;14.00;2.70;;;;;;;18.28;68.18;100197.48;112867;1193;22446;-62
2021/09/23 11:40:10;;;;;;;11.80;2.90;;;;;;;18.36;68.33;100198.48;112771;1201;22425;-62